Terminal Aerodrome Forecast
Issued by NWS

Home | Current Version | Previous Version | Text Only | Print | Product List | Glossary On
Versions: 1 2 3 4 5 6 7 8 9 10 11 12 13 14 15 16 17 18 19 20 21 22 23 24 25 26 27 28 29 30 31 32 33 34
948
FTAK31 PANC 020259 AAA
TAFACD
TAF AMD
PACD 020259Z 0203/0224 28015KT P6SM VCSH OVC015
      TEMPO 0203/0206 BKN009
     FM020600 27008KT P6SM BKN025
     FM021800 14011KT P6SM SCT030 BKN060=

USA.gov is the U.S. government's official web portal to all federal, state and local government web resources and services.